sensor_id;sensor_type;location;lat;lon;timestamp;pressure;altitude;pressure_sealevel;temperature;humidity
9721;BME280;4899;42.644;23.366;2023-04-25T00:01:03;93533.91;;;10.40;100.00
9721;BME280;4899;42.644;23.366;2023-04-25T00:03:30;93535.84;;;10.56;100.00
9721;BME280;4899;42.644;23.366;2023-04-25T00:05:57;93526.75;;;10.58;100.00
9721;BME280;4899;42.644;23.366;2023-04-25T00:08:24;93517.63;;;10.61;100.00
9721;BME280;4899;42.644;23.366;2023-04-25T00:10:50;93519.78;;;10.71;100.00
9721;BME280;4899;42.644;23.366;2023-04-25T00:13:15;93506.59;;;10.72;100.00
9721;BME280;4899;42.644;23.366;2023-04-25T00:15:43;93513.22;;;10.73;100.00
9721;BME280;4899;42.644;23.366;2023-04-25T00:18:08;93505.94;;;10.75;100.00
9721;BME280;4899;42.644;23.366;2023-04-25T00:20:35;93498.03;;;10.68;100.00
9721;BME280;4899;42.644;23.366;2023-04-25T00:23:00;93487.94;;;10.63;100.00
9721;BME280;4899;42.644;23.366;2023-04-25T00:25:26;93486.03;;;10.60;100.00
9721;BME280;4899;42.644;23.366;2023-04-25T00:27:52;93466.84;;;10.58;100.00
9721;BME280;4899;42.644;23.366;2023-04-25T00:30:18;93439.88;;;10.39;100.00
9721;BME280;4899;42.644;23.366;2023-04-25T00:32:43;93463.72;;;10.64;100.00
9721;BME280;4899;42.644;23.366;2023-04-25T00:35:09;93460.94;;;10.57;100.00
9721;BME280;4899;42.644;23.366;2023-04-25T00:37:34;93455.09;;;10.44;100.00
9721;BME280;4899;42.644;23.366;2023-04-25T00:40:00;93465.81;;;10.46;100.00
9721;BME280;4899;42.644;23.366;2023-04-25T00:42:26;93415.59;;;10.25;100.00
9721;BME280;4899;42.644;23.366;2023-04-25T00:44:52;93458.28;;;10.54;100.00
9721;BME280;4899;42.644;23.366;2023-04-25T00:47:18;93451.97;;;10.51;100.00
9721;BME280;4899;42.644;23.366;2023-04-25T00:49:43;93445.34;;;10.50;100.00
9721;BME280;4899;42.644;23.366;2023-04-25T00:52:09;93451.66;;;10.53;100.00
9721;BME280;4899;42.644;23.366;2023-04-25T00:54:35;93439.97;;;10.55;100.00
9721;BME280;4899;42.644;23.366;2023-04-25T00:57:00;93443.19;;;10.52;100.00
9721;BME280;4899;42.644;23.366;2023-04-25T00:59:27;93432.63;;;10.41;100.00
9721;BME280;4899;42.644;23.366;2023-04-25T01:01:54;93444.03;;;10.56;100.00
9721;BME280;4899;42.644;23.366;2023-04-25T01:04:20;93439.53;;;10.53;100.00
9721;BME280;4899;42.644;23.366;2023-04-25T01:06:46;93445.09;;;10.55;100.00
9721;BME280;4899;42.644;23.366;2023-04-25T01:09:12;93447.06;;;10.46;100.00
9721;BME280;4899;42.644;23.366;2023-04-25T01:11:37;93438.06;;;10.40;100.00
9721;BME280;4899;42.644;23.366;2023-04-25T01:14:05;93440.44;;;10.45;100.00
9721;BME280;4899;42.644;23.366;2023-04-25T01:16:31;93425.84;;;10.49;100.00
9721;BME280;4899;42.644;23.366;2023-04-25T01:18:58;93430.34;;;10.52;100.00
9721;BME280;4899;42.644;23.366;2023-04-25T01:21:24;93408.69;;;10.53;100.00
9721;BME280;4899;42.644;23.366;2023-04-25T01:23:53;93397.97;;;10.51;100.00
9721;BME280;4899;42.644;23.366;2023-04-25T01:26:19;93407.44;;;10.47;100.00
9721;BME280;4899;42.644;23.366;2023-04-25T01:28:46;93409.75;;;10.52;100.00
9721;BME280;4899;42.644;23.366;2023-04-25T01:31:12;93411.91;;;10.50;100.00
9721;BME280;4899;42.644;23.366;2023-04-25T01:33:38;93423.09;;;10.42;100.00
9721;BME280;4899;42.644;23.366;2023-04-25T01:36:04;93415.78;;;10.44;100.00
9721;BME280;4899;42.644;23.366;2023-04-25T01:38:29;93430.88;;;10.45;100.00
9721;BME280;4899;42.644;23.366;2023-04-25T01:40:55;93438.94;;;10.44;100.00
9721;BME280;4899;42.644;23.366;2023-04-25T01:43:21;93442.16;;;10.41;100.00
9721;BME280;4899;42.644;23.366;2023-04-25T01:45:48;93430.56;;;10.35;100.00
9721;BME280;4899;42.644;23.366;2023-04-25T01:48:14;93434.13;;;10.30;100.00
9721;BME280;4899;42.644;23.366;2023-04-25T01:50:40;93443.31;;;10.31;100.00
9721;BME280;4899;42.644;23.366;2023-04-25T01:53:09;93448.38;;;10.28;100.00
9721;BME280;4899;42.644;23.366;2023-04-25T01:55:34;93435.59;;;10.19;100.00
9721;BME280;4899;42.644;23.366;2023-04-25T01:58:02;93434.25;;;10.22;100.00
9721;BME280;4899;42.644;23.366;2023-04-25T02:00:27;93434.22;;;10.09;100.00
9721;BME280;4899;42.644;23.366;2023-04-25T02:02:53;93438.81;;;10.16;100.00
9721;BME280;4899;42.644;23.366;2023-04-25T02:05:19;93439.34;;;10.09;100.00
9721;BME280;4899;42.644;23.366;2023-04-25T02:07:45;93441.91;;;10.09;100.00
9721;BME280;4899;42.644;23.366;2023-04-25T02:10:11;93438.59;;;10.09;100.00
9721;BME280;4899;42.644;23.366;2023-04-25T02:12:36;93406.91;;;10.05;100.00
9721;BME280;4899;42.644;23.366;2023-04-25T02:15:02;93427.16;;;9.94;100.00
9721;BME280;4899;42.644;23.366;2023-04-25T02:17:27;93424.47;;;10.03;100.00
9721;BME280;4899;42.644;23.366;2023-04-25T02:19:53;93413.44;;;10.02;100.00
9721;BME280;4899;42.644;23.366;2023-04-25T02:22:18;93415.41;;;9.93;100.00
9721;BME280;4899;42.644;23.366;2023-04-25T02:24:44;93411.31;;;9.92;100.00
9721;BME280;4899;42.644;23.366;2023-04-25T02:27:09;93399.09;;;9.89;100.00
9721;BME280;4899;42.644;23.366;2023-04-25T02:29:35;93397.41;;;9.81;100.00
9721;BME280;4899;42.644;23.366;2023-04-25T02:32:00;93396.97;;;9.79;100.00
9721;BME280;4899;42.644;23.366;2023-04-25T02:34:25;93382.53;;;9.74;100.00
9721;BME280;4899;42.644;23.366;2023-04-25T02:36:51;93399.34;;;9.72;100.00
9721;BME280;4899;42.644;23.366;2023-04-25T02:39:17;93394.53;;;9.70;100.00
9721;BME280;4899;42.644;23.366;2023-04-25T02:41:42;93388.09;;;9.64;100.00
9721;BME280;4899;42.644;23.366;2023-04-25T02:44:07;93382.19;;;9.64;100.00
9721;BME280;4899;42.644;23.366;2023-04-25T02:46:33;93395.69;;;9.73;100.00
9721;BME280;4899;42.644;23.366;2023-04-25T02:48:58;93402.75;;;9.76;100.00
9721;BME280;4899;42.644;23.366;2023-04-25T02:51:24;93394.09;;;9.68;100.00
9721;BME280;4899;42.644;23.366;2023-04-25T02:53:50;93384.34;;;9.62;100.00
9721;BME280;4899;42.644;23.366;2023-04-25T02:56:15;93386.16;;;9.61;100.00
9721;BME280;4899;42.644;23.366;2023-04-25T02:58:40;93366.91;;;9.55;100.00
9721;BME280;4899;42.644;23.366;2023-04-25T03:01:06;93370.31;;;9.59;100.00
9721;BME280;4899;42.644;23.366;2023-04-25T03:03:31;93385.50;;;9.64;100.00
9721;BME280;4899;42.644;23.366;2023-04-25T03:05:57;93366.69;;;9.60;100.00
9721;BME280;4899;42.644;23.366;2023-04-25T03:08:22;93368.19;;;9.61;100.00
9721;BME280;4899;42.644;23.366;2023-04-25T03:10:48;93380.63;;;9.71;100.00
9721;BME280;4899;42.644;23.366;2023-04-25T03:13:15;93360.16;;;9.63;100.00
9721;BME280;4899;42.644;23.366;2023-04-25T03:15:40;93356.75;;;9.71;100.00
9721;BME280;4899;42.644;23.366;2023-04-25T03:18:06;93364.25;;;9.76;100.00
9721;BME280;4899;42.644;23.366;2023-04-25T03:20:31;93372.28;;;9.74;100.00
9721;BME280;4899;42.644;23.366;2023-04-25T03:22:56;93376.00;;;9.77;100.00
9721;BME280;4899;42.644;23.366;2023-04-25T03:25:22;93382.00;;;9.81;100.00
9721;BME280;4899;42.644;23.366;2023-04-25T03:27:47;93366.47;;;9.77;100.00
9721;BME280;4899;42.644;23.366;2023-04-25T03:30:13;93377.28;;;9.83;100.00
9721;BME280;4899;42.644;23.366;2023-04-25T03:32:38;93361.53;;;9.84;100.00
9721;BME280;4899;42.644;23.366;2023-04-25T03:35:04;93367.66;;;9.92;100.00
9721;BME280;4899;42.644;23.366;2023-04-25T03:37:30;93325.53;;;9.69;100.00
9721;BME280;4899;42.644;23.366;2023-04-25T03:39:56;93377.38;;;9.99;100.00
9721;BME280;4899;42.644;23.366;2023-04-25T03:42:21;93363.38;;;9.96;100.00
9721;BME280;4899;42.644;23.366;2023-04-25T03:44:48;93379.31;;;9.90;100.00
9721;BME280;4899;42.644;23.366;2023-04-25T03:47:14;93367.78;;;9.71;100.00
9721;BME280;4899;42.644;23.366;2023-04-25T03:49:40;93372.50;;;9.69;100.00
9721;BME280;4899;42.644;23.366;2023-04-25T03:52:05;93371.41;;;9.70;100.00
9721;BME280;4899;42.644;23.366;2023-04-25T03:54:30;93354.94;;;9.71;100.00
9721;BME280;4899;42.644;23.366;2023-04-25T03:56:56;93362.41;;;9.88;100.00
9721;BME280;4899;42.644;23.366;2023-04-25T03:59:21;93358.88;;;9.93;100.00
9721;BME280;4899;42.644;23.366;2023-04-25T04:01:47;93338.75;;;9.95;100.00
9721;BME280;4899;42.644;23.366;2023-04-25T04:04:12;93350.91;;;10.10;100.00
9721;BME280;4899;42.644;23.366;2023-04-25T04:06:38;93369.44;;;10.28;100.00
9721;BME280;4899;42.644;23.366;2023-04-25T04:09:03;93361.16;;;10.35;100.00
9721;BME280;4899;42.644;23.366;2023-04-25T04:11:30;93371.22;;;10.40;100.00
9721;BME280;4899;42.644;23.366;2023-04-25T04:13:56;93380.50;;;10.57;100.00
9721;BME280;4899;42.644;23.366;2023-04-25T04:16:21;93388.41;;;10.64;100.00
9721;BME280;4899;42.644;23.366;2023-04-25T04:18:47;93380.97;;;10.74;100.00
9721;BME280;4899;42.644;23.366;2023-04-25T04:21:12;93365.25;;;10.92;100.00
9721;BME280;4899;42.644;23.366;2023-04-25T04:23:38;93368.25;;;10.94;100.00
9721;BME280;4899;42.644;23.366;2023-04-25T04:26:04;93362.63;;;11.04;100.00
9721;BME280;4899;42.644;23.366;2023-04-25T04:28:32;93380.78;;;10.95;100.00
9721;BME280;4899;42.644;23.366;2023-04-25T04:30:57;93362.47;;;10.69;100.00
9721;BME280;4899;42.644;23.366;2023-04-25T04:33:23;93387.44;;;10.96;100.00
9721;BME280;4899;42.644;23.366;2023-04-25T04:35:49;93374.97;;;10.98;100.00
9721;BME280;4899;42.644;23.366;2023-04-25T04:38:17;93381.03;;;11.06;100.00
9721;BME280;4899;42.644;23.366;2023-04-25T04:40:43;93378.31;;;11.15;100.00
9721;BME280;4899;42.644;23.366;2023-04-25T04:43:09;93379.25;;;11.22;100.00
9721;BME280;4899;42.644;23.366;2023-04-25T04:45:35;93387.56;;;11.31;100.00
9721;BME280;4899;42.644;23.366;2023-04-25T04:48:01;93376.59;;;11.34;100.00
9721;BME280;4899;42.644;23.366;2023-04-25T04:50:27;93369.38;;;11.40;100.00
9721;BME280;4899;42.644;23.366;2023-04-25T04:52:52;93368.72;;;11.43;100.00
9721;BME280;4899;42.644;23.366;2023-04-25T04:55:19;93374.94;;;11.42;100.00
9721;BME280;4899;42.644;23.366;2023-04-25T04:57:45;93382.75;;;11.46;100.00
9721;BME280;4899;42.644;23.366;2023-04-25T05:00:11;93397.53;;;11.49;100.00
9721;BME280;4899;42.644;23.366;2023-04-25T05:02:38;93393.13;;;11.49;100.00
9721;BME280;4899;42.644;23.366;2023-04-25T05:05:04;93392.38;;;11.49;100.00
9721;BME280;4899;42.644;23.366;2023-04-25T05:07:30;93384.59;;;11.45;100.00
9721;BME280;4899;42.644;23.366;2023-04-25T05:09:55;93404.59;;;11.52;100.00
9721;BME280;4899;42.644;23.366;2023-04-25T05:12:21;93420.34;;;11.34;100.00
9721;BME280;4899;42.644;23.366;2023-04-25T05:14:46;93414.13;;;11.35;100.00
9721;BME280;4899;42.644;23.366;2023-04-25T05:17:11;93410.38;;;11.33;100.00
9721;BME280;4899;42.644;23.366;2023-04-25T05:19:37;93420.78;;;11.36;100.00
9721;BME280;4899;42.644;23.366;2023-04-25T05:22:03;93415.88;;;11.31;100.00
9721;BME280;4899;42.644;23.366;2023-04-25T05:24:28;93412.56;;;11.31;100.00
9721;BME280;4899;42.644;23.366;2023-04-25T05:26:54;93396.94;;;11.24;100.00
9721;BME280;4899;42.644;23.366;2023-04-25T05:29:19;93403.00;;;11.31;100.00
9721;BME280;4899;42.644;23.366;2023-04-25T05:31:45;93422.25;;;11.37;100.00
9721;BME280;4899;42.644;23.366;2023-04-25T05:34:10;93414.03;;;11.32;100.00
9721;BME280;4899;42.644;23.366;2023-04-25T05:36:36;93405.25;;;11.33;100.00
9721;BME280;4899;42.644;23.366;2023-04-25T05:39:01;93403.16;;;11.38;100.00
9721;BME280;4899;42.644;23.366;2023-04-25T05:41:28;93401.03;;;11.40;100.00
9721;BME280;4899;42.644;23.366;2023-04-25T05:43:54;93415.66;;;11.52;100.00
9721;BME280;4899;42.644;23.366;2023-04-25T05:46:19;93418.97;;;11.53;100.00
9721;BME280;4899;42.644;23.366;2023-04-25T05:48:45;93419.72;;;11.69;100.00
9721;BME280;4899;42.644;23.366;2023-04-25T05:51:10;93424.31;;;11.91;100.00
9721;BME280;4899;42.644;23.366;2023-04-25T05:53:36;93427.06;;;11.98;100.00
9721;BME280;4899;42.644;23.366;2023-04-25T05:56:01;93425.56;;;11.97;100.00
9721;BME280;4899;42.644;23.366;2023-04-25T05:58:27;93411.25;;;12.00;100.00
9721;BME280;4899;42.644;23.366;2023-04-25T06:00:52;93424.53;;;12.18;100.00
9721;BME280;4899;42.644;23.366;2023-04-25T06:03:17;93410.22;;;12.20;100.00
9721;BME280;4899;42.644;23.366;2023-04-25T06:05:43;93428.91;;;12.33;100.00
9721;BME280;4899;42.644;23.366;2023-04-25T06:08:09;93418.66;;;12.37;100.00
9721;BME280;4899;42.644;23.366;2023-04-25T06:10:35;93423.38;;;12.50;100.00
9721;BME280;4899;42.644;23.366;2023-04-25T06:13:01;93400.13;;;12.31;100.00
9721;BME280;4899;42.644;23.366;2023-04-25T06:15:26;93421.59;;;12.54;100.00
9721;BME280;4899;42.644;23.366;2023-04-25T06:17:52;93430.16;;;12.58;100.00
9721;BME280;4899;42.644;23.366;2023-04-25T06:20:17;93430.16;;;12.58;100.00
9721;BME280;4899;42.644;23.366;2023-04-25T06:22:43;93419.72;;;12.51;100.00
9721;BME280;4899;42.644;23.366;2023-04-25T06:25:08;93419.56;;;12.44;100.00
9721;BME280;4899;42.644;23.366;2023-04-25T06:27:34;93415.34;;;12.36;100.00
9721;BME280;4899;42.644;23.366;2023-04-25T06:29:59;93430.22;;;12.43;100.00
9721;BME280;4899;42.644;23.366;2023-04-25T06:32:25;93424.66;;;12.41;100.00
9721;BME280;4899;42.644;23.366;2023-04-25T06:34:52;93436.75;;;12.56;100.00
9721;BME280;4899;42.644;23.366;2023-04-25T06:37:18;93425.16;;;12.66;100.00
9721;BME280;4899;42.644;23.366;2023-04-25T06:39:43;93435.06;;;12.83;100.00
9721;BME280;4899;42.644;23.366;2023-04-25T06:42:09;93429.91;;;12.83;100.00
9721;BME280;4899;42.644;23.366;2023-04-25T06:44:35;93430.03;;;13.09;100.00
9721;BME280;4899;42.644;23.366;2023-04-25T06:47:01;93434.66;;;13.39;100.00
9721;BME280;4899;42.644;23.366;2023-04-25T06:49:26;93433.09;;;13.57;100.00
9721;BME280;4899;42.644;23.366;2023-04-25T06:51:55;93445.25;;;13.76;100.00
9721;BME280;4899;42.644;23.366;2023-04-25T06:54:20;93440.00;;;13.95;100.00
9721;BME280;4899;42.644;23.366;2023-04-25T06:56:47;93434.06;;;14.18;100.00
9721;BME280;4899;42.644;23.366;2023-04-25T06:59:12;93443.25;;;14.41;100.00
9721;BME280;4899;42.644;23.366;2023-04-25T07:01:37;93435.00;;;14.59;100.00
9721;BME280;4899;42.644;23.366;2023-04-25T07:04:03;93439.53;;;14.65;100.00
9721;BME280;4899;42.644;23.366;2023-04-25T07:06:28;93449.66;;;14.77;100.00
9721;BME280;4899;42.644;23.366;2023-04-25T07:08:54;93441.22;;;14.84;100.00
9721;BME280;4899;42.644;23.366;2023-04-25T07:11:20;93433.19;;;14.93;100.00
9721;BME280;4899;42.644;23.366;2023-04-25T07:13:45;93434.44;;;15.06;100.00
9721;BME280;4899;42.644;23.366;2023-04-25T07:16:10;93440.63;;;14.94;100.00
9721;BME280;4899;42.644;23.366;2023-04-25T07:18:36;93443.56;;;14.93;100.00
9721;BME280;4899;42.644;23.366;2023-04-25T07:21:01;93438.00;;;14.91;100.00
9721;BME280;4899;42.644;23.366;2023-04-25T07:23:27;93433.94;;;14.93;100.00
9721;BME280;4899;42.644;23.366;2023-04-25T07:25:52;93425.81;;;14.95;100.00
9721;BME280;4899;42.644;23.366;2023-04-25T07:28:18;93423.75;;;15.11;100.00
9721;BME280;4899;42.644;23.366;2023-04-25T07:30:43;93444.59;;;15.18;100.00
9721;BME280;4899;42.644;23.366;2023-04-25T07:33:09;93430.75;;;15.07;100.00
9721;BME280;4899;42.644;23.366;2023-04-25T07:35:34;93431.91;;;15.09;100.00
9721;BME280;4899;42.644;23.366;2023-04-25T07:38:02;93430.88;;;15.18;100.00
9721;BME280;4899;42.644;23.366;2023-04-25T07:40:28;93430.56;;;15.23;100.00
9721;BME280;4899;42.644;23.366;2023-04-25T07:42:53;93427.03;;;15.38;100.00
9721;BME280;4899;42.644;23.366;2023-04-25T07:45:19;93428.72;;;15.60;100.00
9721;BME280;4899;42.644;23.366;2023-04-25T07:47:44;93426.63;;;15.77;100.00
9721;BME280;4899;42.644;23.366;2023-04-25T07:50:10;93424.47;;;15.82;100.00
9721;BME280;4899;42.644;23.366;2023-04-25T07:52:36;93426.81;;;15.98;100.00
9721;BME280;4899;42.644;23.366;2023-04-25T07:55:02;93406.03;;;15.94;100.00
9721;BME280;4899;42.644;23.366;2023-04-25T07:57:28;93426.75;;;15.91;100.00
9721;BME280;4899;42.644;23.366;2023-04-25T07:59:54;93422.72;;;15.97;100.00
9721;BME280;4899;42.644;23.366;2023-04-25T08:02:19;93418.69;;;16.03;100.00
9721;BME280;4899;42.644;23.366;2023-04-25T08:04:45;93424.31;;;16.12;100.00
9721;BME280;4899;42.644;23.366;2023-04-25T08:07:11;93420.91;;;16.01;100.00
9721;BME280;4899;42.644;23.366;2023-04-25T08:09:37;93417.91;;;15.99;100.00
9721;BME280;4899;42.644;23.366;2023-04-25T08:12:03;93420.63;;;16.13;100.00
9721;BME280;4899;42.644;23.366;2023-04-25T08:14:29;93425.91;;;16.31;100.00
9721;BME280;4899;42.644;23.366;2023-04-25T08:17:00;93415.34;;;16.61;100.00
9721;BME280;4899;42.644;23.366;2023-04-25T08:19:26;93416.63;;;16.99;100.00
9721;BME280;4899;42.644;23.366;2023-04-25T08:21:51;93416.69;;;17.24;100.00
9721;BME280;4899;42.644;23.366;2023-04-25T08:24:17;93413.03;;;17.50;100.00
9721;BME280;4899;42.644;23.366;2023-04-25T08:26:42;93402.63;;;17.39;100.00
9721;BME280;4899;42.644;23.366;2023-04-25T08:29:07;93403.75;;;17.38;100.00
9721;BME280;4899;42.644;23.366;2023-04-25T08:31:33;93400.41;;;17.48;100.00
9721;BME280;4899;42.644;23.366;2023-04-25T08:33:58;93402.28;;;17.62;100.00
9721;BME280;4899;42.644;23.366;2023-04-25T08:36:24;93398.22;;;17.82;100.00
9721;BME280;4899;42.644;23.366;2023-04-25T08:38:49;93394.13;;;17.89;100.00
9721;BME280;4899;42.644;23.366;2023-04-25T08:41:14;93399.31;;;17.99;100.00
9721;BME280;4899;42.644;23.366;2023-04-25T08:43:42;93409.00;;;18.13;100.00
9721;BME280;4899;42.644;23.366;2023-04-25T08:46:09;93420.13;;;17.81;95.32
9721;BME280;4899;42.644;23.366;2023-04-25T08:48:35;93425.34;;;17.71;98.88
9721;BME280;4899;42.644;23.366;2023-04-25T08:51:02;93413.34;;;17.27;100.00
9721;BME280;4899;42.644;23.366;2023-04-25T08:53:32;93404.28;;;16.78;100.00
9721;BME280;4899;42.644;23.366;2023-04-25T08:55:59;93415.66;;;16.56;100.00
9721;BME280;4899;42.644;23.366;2023-04-25T08:58:27;93391.88;;;16.40;100.00
9721;BME280;4899;42.644;23.366;2023-04-25T09:00:52;93399.84;;;16.75;100.00
9721;BME280;4899;42.644;23.366;2023-04-25T09:03:18;93411.78;;;16.90;100.00
9721;BME280;4899;42.644;23.366;2023-04-25T09:05:44;93403.53;;;16.71;100.00
9721;BME280;4899;42.644;23.366;2023-04-25T09:08:09;93408.03;;;16.84;100.00
9721;BME280;4899;42.644;23.366;2023-04-25T09:10:35;93390.34;;;17.22;100.00
9721;BME280;4899;42.644;23.366;2023-04-25T09:13:05;93402.25;;;17.44;100.00
9721;BME280;4899;42.644;23.366;2023-04-25T09:15:32;93406.75;;;17.62;100.00
9721;BME280;4899;42.644;23.366;2023-04-25T09:17:59;93397.44;;;17.61;100.00
9721;BME280;4899;42.644;23.366;2023-04-25T09:20:24;93390.38;;;17.50;100.00
9721;BME280;4899;42.644;23.366;2023-04-25T09:23:04;93381.44;;;17.27;100.00
9721;BME280;4899;42.644;23.366;2023-04-25T09:25:34;93388.09;;;17.24;100.00
9721;BME280;4899;42.644;23.366;2023-04-25T09:28:04;93379.19;;;17.25;100.00
9721;BME280;4899;42.644;23.366;2023-04-25T09:30:31;93374.72;;;17.18;100.00
9721;BME280;4899;42.644;23.366;2023-04-25T09:32:57;93386.63;;;17.30;100.00
9721;BME280;4899;42.644;23.366;2023-04-25T09:35:28;93380.31;;;17.31;100.00
9721;BME280;4899;42.644;23.366;2023-04-25T09:37:55;93388.47;;;17.30;100.00
9721;BME280;4899;42.644;23.366;2023-04-25T09:40:20;93385.13;;;17.22;100.00
9721;BME280;4899;42.644;23.366;2023-04-25T09:42:46;93383.66;;;17.21;100.00
9721;BME280;4899;42.644;23.366;2023-04-25T09:45:15;93376.19;;;17.09;100.00
9721;BME280;4899;42.644;23.366;2023-04-25T09:47:40;93376.97;;;17.13;100.00
9721;BME280;4899;42.644;23.366;2023-04-25T09:50:14;93377.66;;;17.06;100.00
9721;BME280;4899;42.644;23.366;2023-04-25T09:52:41;93378.06;;;17.12;100.00
9721;BME280;4899;42.644;23.366;2023-04-25T09:55:07;93382.16;;;17.27;100.00
9721;BME280;4899;42.644;23.366;2023-04-25T09:57:32;93389.63;;;17.39;100.00
9721;BME280;4899;42.644;23.366;2023-04-25T10:00:00;93382.94;;;17.52;100.00
9721;BME280;4899;42.644;23.366;2023-04-25T10:02:27;93377.75;;;17.56;100.00
9721;BME280;4899;42.644;23.366;2023-04-25T10:04:54;93375.53;;;17.62;100.00
9721;BME280;4899;42.644;23.366;2023-04-25T10:07:25;93385.97;;;17.69;100.00
9721;BME280;4899;42.644;23.366;2023-04-25T10:09:55;93383.34;;;17.69;100.00
9721;BME280;4899;42.644;23.366;2023-04-25T10:12:24;93374.78;;;17.43;100.00
9721;BME280;4899;42.644;23.366;2023-04-25T10:14:50;93377.75;;;17.49;100.00
9721;BME280;4899;42.644;23.366;2023-04-25T10:17:17;93374.41;;;17.52;100.00
9721;BME280;4899;42.644;23.366;2023-04-25T10:19:46;93370.31;;;17.40;100.00
9721;BME280;4899;42.644;23.366;2023-04-25T10:22:32;93410.31;;;16.97;100.00
9721;BME280;4899;42.644;23.366;2023-04-25T10:25:00;93401.31;;;16.76;100.00
9721;BME280;4899;42.644;23.366;2023-04-25T10:27:29;93399.94;;;16.24;100.00
9721;BME280;4899;42.644;23.366;2023-04-25T10:32:36;93358.38;;;16.20;89.65
9721;BME280;4899;42.644;23.366;2023-04-25T10:35:16;93367.53;;;16.69;98.29
9721;BME280;4899;42.644;23.366;2023-04-25T10:38:04;93376.84;;;16.81;88.46
9721;BME280;4899;42.644;23.366;2023-04-25T10:40:33;93377.66;;;16.99;87.69
9721;BME280;4899;42.644;23.366;2023-04-25T10:43:37;93371.78;;;17.56;70.58
9721;BME280;4899;42.644;23.366;2023-04-25T10:46:16;93359.16;;;18.00;67.03
9721;BME280;4899;42.644;23.366;2023-04-25T10:48:52;93366.59;;;18.12;65.33
9721;BME280;4899;42.644;23.366;2023-04-25T10:51:25;93372.56;;;17.67;70.03
9721;BME280;4899;42.644;23.366;2023-04-25T10:54:03;93381.72;;;16.89;100.00
9721;BME280;4899;42.644;23.366;2023-04-25T10:56:31;93363.88;;;16.84;100.00
9721;BME280;4899;42.644;23.366;2023-04-25T10:59:05;93372.06;;;16.86;100.00
9721;BME280;4899;42.644;23.366;2023-04-25T11:01:36;93367.94;;;16.78;100.00
9721;BME280;4899;42.644;23.366;2023-04-25T11:04:03;93367.19;;;16.81;100.00
9721;BME280;4899;42.644;23.366;2023-04-25T11:08:53;93364.66;;;17.03;100.00
9721;BME280;4899;42.644;23.366;2023-04-25T11:11:19;93375.75;;;18.70;92.44
9721;BME280;4899;42.644;23.366;2023-04-25T11:13:48;93371.84;;;19.73;84.09
9721;BME280;4899;42.644;23.366;2023-04-25T11:16:14;93371.59;;;20.02;80.22
9721;BME280;4899;42.644;23.366;2023-04-25T11:18:43;93373.00;;;20.85;71.02
9721;BME280;4899;42.644;23.366;2023-04-25T11:21:10;93383.06;;;21.94;61.03
9721;BME280;4899;42.644;23.366;2023-04-25T11:23:36;93360.81;;;22.49;57.93
9721;BME280;4899;42.644;23.366;2023-04-25T11:26:03;93356.19;;;22.37;55.67
9721;BME280;4899;42.644;23.366;2023-04-25T11:28:28;93364.94;;;21.84;56.47
9721;BME280;4899;42.644;23.366;2023-04-25T11:30:54;93351.59;;;21.24;57.33
9721;BME280;4899;42.644;23.366;2023-04-25T11:33:24;93357.47;;;20.71;58.54
9721;BME280;4899;42.644;23.366;2023-04-25T11:35:50;93354.63;;;20.20;60.29
9721;BME280;4899;42.644;23.366;2023-04-25T11:38:17;93352.97;;;19.58;64.29
9721;BME280;4899;42.644;23.366;2023-04-25T11:40:43;93357.34;;;19.06;68.83
9721;BME280;4899;42.644;23.366;2023-04-25T11:43:09;93356.47;;;18.43;78.11
9721;BME280;4899;42.644;23.366;2023-04-25T11:45:36;93353.97;;;17.82;84.56
9721;BME280;4899;42.644;23.366;2023-04-25T11:48:02;93362.88;;;17.35;94.28
9721;BME280;4899;42.644;23.366;2023-04-25T11:50:28;93379.06;;;16.72;100.00
9721;BME280;4899;42.644;23.366;2023-04-25T11:52:56;93378.53;;;16.45;100.00
9721;BME280;4899;42.644;23.366;2023-04-25T11:55:21;93377.91;;;16.00;100.00
9721;BME280;4899;42.644;23.366;2023-04-25T11:57:49;93399.69;;;15.44;100.00
9721;BME280;4899;42.644;23.366;2023-04-25T12:00:17;93395.88;;;14.64;100.00
9721;BME280;4899;42.644;23.366;2023-04-25T12:02:46;93388.31;;;13.72;100.00
9721;BME280;4899;42.644;23.366;2023-04-25T12:05:12;93370.78;;;13.16;100.00
9721;BME280;4899;42.644;23.366;2023-04-25T12:07:39;93348.16;;;13.29;100.00
9721;BME280;4899;42.644;23.366;2023-04-25T12:10:11;93347.59;;;13.89;100.00
9721;BME280;4899;42.644;23.366;2023-04-25T12:12:37;93343.28;;;14.26;100.00
9721;BME280;4899;42.644;23.366;2023-04-25T12:15:13;93344.03;;;15.31;100.00
9721;BME280;4899;42.644;23.366;2023-04-25T12:17:45;93350.81;;;15.46;100.00
9721;BME280;4899;42.644;23.366;2023-04-25T12:20:16;93342.13;;;15.68;100.00
9721;BME280;4899;42.644;23.366;2023-04-25T12:22:44;93335.78;;;16.17;100.00
9721;BME280;4899;42.644;23.366;2023-04-25T12:25:20;93296.03;;;16.06;100.00
9721;BME280;4899;42.644;23.366;2023-04-25T12:33:23;93322.19;;;16.49;100.00
9721;BME280;4899;42.644;23.366;2023-04-25T12:35:48;93324.22;;;16.98;100.00
9721;BME280;4899;42.644;23.366;2023-04-25T12:38:28;93341.34;;;17.99;100.00
9721;BME280;4899;42.644;23.366;2023-04-25T12:40:56;93349.09;;;18.24;100.00
9721;BME280;4899;42.644;23.366;2023-04-25T12:43:21;93365.88;;;17.94;100.00
9721;BME280;4899;42.644;23.366;2023-04-25T12:45:48;93393.19;;;18.88;96.75
9721;BME280;4899;42.644;23.366;2023-04-25T12:48:15;93399.34;;;17.92;100.00
9721;BME280;4899;42.644;23.366;2023-04-25T12:50:40;93397.75;;;17.20;100.00
9721;BME280;4899;42.644;23.366;2023-04-25T12:53:07;93398.94;;;16.50;100.00
9721;BME280;4899;42.644;23.366;2023-04-25T12:55:32;93394.59;;;15.99;100.00
9721;BME280;4899;42.644;23.366;2023-04-25T12:57:58;93399.72;;;15.51;100.00
9721;BME280;4899;42.644;23.366;2023-04-25T13:00:23;93400.72;;;14.99;100.00
9721;BME280;4899;42.644;23.366;2023-04-25T13:02:49;93411.13;;;14.72;100.00
9721;BME280;4899;42.644;23.366;2023-04-25T13:05:15;93396.56;;;14.34;100.00
9721;BME280;4899;42.644;23.366;2023-04-25T13:07:40;93397.84;;;13.91;100.00
9721;BME280;4899;42.644;23.366;2023-04-25T13:10:06;93404.94;;;13.71;100.00